createdAt,value
2022-09-12T00:04:09.690Z,17.04
2022-09-12T00:24:09.700Z,17.04
2022-09-12T00:44:09.631Z,17.03
2022-09-12T01:04:09.615Z,17
2022-09-12T01:24:09.589Z,16.97
2022-09-12T01:44:09.562Z,16.95
2022-09-12T02:04:09.543Z,16.94
2022-09-12T02:24:09.530Z,16.93
2022-09-12T02:44:09.508Z,16.9
2022-09-12T03:04:09.490Z,16.86
2022-09-12T03:24:09.473Z,16.84
2022-09-12T03:44:09.447Z,16.83
2022-09-12T04:04:09.423Z,16.82
2022-09-12T04:24:09.408Z,16.79
2022-09-12T04:44:09.143Z,16.75
2022-09-12T05:04:09.385Z,16.73
2022-09-12T05:24:09.350Z,16.73
2022-09-12T05:44:09.335Z,16.7
2022-09-12T06:04:09.301Z,16.65
2022-09-12T06:24:09.292Z,16.63
2022-09-12T06:44:09.238Z,16.63
2022-09-12T07:04:09.211Z,16.6
2022-09-12T07:24:09.217Z,16.56
2022-09-12T07:44:09.182Z,16.53
2022-09-12T08:04:09.187Z,16.53
2022-09-12T08:24:09.180Z,16.51
2022-09-12T08:44:08.868Z,16.48
2022-09-12T09:04:09.049Z,16.45
2022-09-12T09:24:08.757Z,16.43
2022-09-12T09:44:09.057Z,16.43
2022-09-12T10:04:08.950Z,16.43
2022-09-12T10:24:08.921Z,16.42
2022-09-12T10:44:08.895Z,16.42
2022-09-12T11:04:08.831Z,16.42
2022-09-12T11:24:08.820Z,16.42
2022-09-12T12:04:08.762Z,16.43
2022-09-12T12:24:08.761Z,16.43
2022-09-12T12:44:08.675Z,16.44
2022-09-12T13:04:08.692Z,16.46
2022-09-12T13:24:08.636Z,16.5
2022-09-12T14:04:08.571Z,16.53
2022-09-12T14:44:08.538Z,16.61
2022-09-12T15:04:08.556Z,16.63
2022-09-12T15:24:08.453Z,16.66
2022-09-12T15:44:08.418Z,16.72
2022-09-12T16:04:08.382Z,16.74
2022-09-12T16:24:08.343Z,16.78
2022-09-12T16:44:08.313Z,16.83
2022-09-12T17:04:08.287Z,16.84
2022-09-12T17:24:08.247Z,16.9
2022-09-12T17:44:08.181Z,16.94
2022-09-12T18:04:08.191Z,16.96
2022-09-12T18:24:08.146Z,17.01
2022-09-12T18:44:08.120Z,17.04
2022-09-12T19:04:08.071Z,17.05
2022-09-12T19:24:07.794Z,17.08
2022-09-12T19:44:08.028Z,17.12
2022-09-12T20:04:08.002Z,17.14
2022-09-12T20:24:08.006Z,17.14
2022-09-12T20:44:07.941Z,17.15
2022-09-12T21:24:07.891Z,17.16
2022-09-12T21:44:07.870Z,17.17
2022-09-12T22:04:07.842Z,17.17
2022-09-12T22:24:07.825Z,17.18
2022-09-12T22:44:07.791Z,17.18
2022-09-12T23:04:07.768Z,17.17
2022-09-12T23:24:07.761Z,17.17
